Weather at Borrego Valley Airport

Public forecast

Using degrees Fahrenheit for public forecast. Weather courtesy of forecast.io.

Closest aviation weather report (METAR) to Borrego Valley Airport

Closest report is Jacqueline Cochran Regional Airport, 23.5 nm (43.5 km) NNE. Retrieved 2021/01/22 22:52 UTC (46 minutes ago):

KTRM 222252Z AUTO 13008KT 10SM FEW085 17/11 A2985 RMK AO2 SLP107 T01720111

Closest aviation forecast (TAF) to Borrego Valley Airport

Closest forecast is Jacqueline Cochran Regional Airport, 23.5 nm (43.5 km) NNE. Retrieved 2021/01/22 18:42 UTC (5 hours ago):

TAF KTRM 221740Z 2218/2318 16009KT P6SM BKN015 BKN200 FM222200 26012G20KT P6SM SCT120 SCT200 FM230100 31015G25KT P6SM SCT060 BKN150 FM230700 32007KT P6SM SCT060 BKN150